This is the latest recevied weather packets stored in our database for station/object DO7ZT-10. If no packets are shown the sender has not sent any weather packets the latest 1 day(s).
| Time | Temp. | Humidity | Pressure | Rain* | Wind** | Luminosity | Snow |
|---|---|---|---|---|---|---|---|
| 1778369253 | 7.22° C | 100% | 1018.8 hPa | - | - | - | - |
| 1778368353 | 7.22° C | 100% | 1019 hPa | - | - | - | - |
| 1778367453 | 7.22° C | 100% | 1019 hPa | - | - | - | - |
| 1778366553 | 7.78° C | 100% | 1019.2 hPa | - | - | - | - |
| 1778365653 | 7.78° C | 100% | 1019.2 hPa | - | - | - | - |
| 1778364753 | 7.78° C | 100% | 1019.3 hPa | - | - | - | - |
| 1778363853 | 8.33° C | 100% | 1019.3 hPa | - | - | - | - |
| 1778362953 | 8.33° C | 100% | 1019.3 hPa | - | - | - | - |
| 1778362053 | 8.33° C | 100% | 1019.4 hPa | - | - | - | - |
| 1778361153 | 8.33° C | 100% | 1019.4 hPa | - | - | - | - |
| 1778360253 | 8.33° C | 100% | 1019.5 hPa | - | - | - | - |
| 1778359352 | 8.89° C | 100% | 1019.6 hPa | - | - | - | - |
| 1778358452 | 8.33° C | 100% | 1019.6 hPa | - | - | - | - |
| 1778357551 | 8.89° C | 100% | 1019.5 hPa | - | - | - | - |
| 1778356651 | 8.89° C | 100% | 1019.6 hPa | - | - | - | - |
| 1778355751 | 8.89° C | 100% | 1019.5 hPa | - | - | - | - |
| 1778354851 | 8.89° C | 100% | 1019.5 hPa | - | - | - | - |
| 1778353951 | 9.44° C | 100% | 1019.4 hPa | - | - | - | - |
| 1778353051 | 11.11° C | 92% | 1019.4 hPa | - | - | - | - |
| 1778352151 | 11.67° C | 88% | 1019.3 hPa | - | - | - | - |
| 1778351251 | 12.22° C | 83% | 1019.3 hPa | - | - | - | - |
| 1778350351 | 12.78° C | 84% | 1019.4 hPa | - | - | - | - |
| 1778349451 | 13.33° C | 83% | 1019.5 hPa | - | - | - | - |
| 1778348551 | 13.89° C | 84% | 1019.6 hPa | - | - | - | - |
| 1778347651 | 14.44° C | 80% | 1019.6 hPa | - | - | - | - |
* Rain since midnight (hover to see other rain measurements)
** Current wind speed in m/s (hover to see current wind gust speed)